Epic Capri — 9HA2845 — position and weather

sailwx.info

Track history (hours):
 
Tides and Currents Weather Stations Pressure Air Temp Water Temp Dewpoint Dewpoint Depression Visibility Wind Speed Wind Dir Waves Ship Positions

Epic Capri

Last reported at 2015-Mar-01 07:33 UTC. Time now 2015-Mar-01 08:33 UTC.
Position N 37°57' W 008°53'.

Length 99 m; draft 5 m.

Type: Tanker. MMSI: 256325000.

Date/timePositionNaut miles runAvg speedWind from/ knotsBaromVisibWave heightAir tempDewpointWater temp
2015-Mar-01 07:33N 37°57' W 008°53'0 0.0
2015-Mar-01 06:33N 37°57' W 008°53'0 0.0
2015-Mar-01 05:33N 37°57' W 008°53'0 0.0
2015-Mar-01 04:33N 37°57' W 008°53'0 0.0
2015-Mar-01 03:33N 37°57' W 008°53'0 0.0
2015-Mar-01 02:30N 37°57' W 008°53'2 2.1
2015-Mar-01 01:33N 37°55' W 008°52'0 0.3
2015-Mar-01 00:32N 37°55' W 008°52'0 0.4
2015-Feb-28 23:33N 37°55' W 008°52'8 8.4
2015-Feb-28 22:33N 37°50' W 009°01'10 9.5
2015-Feb-28 21:33N 37°44' W 009°10'9 9.3
2015-Feb-28 20:33N 37°38' W 009°19'171 8.5
2015-Feb-28 00:25N 35°49' W 012°04'  
2015-Feb-22 19:13N 37°40' W 009°16'6 9.2
2015-Feb-22 18:33N 37°44' W 009°10'9 9.2
2015-Feb-22 17:33N 37°50' W 009°01'9 8.9
2015-Feb-22 16:33N 37°56' W 008°53'1 0.9
2015-Feb-22 15:31N 37°57' W 008°53'0 0.0
2015-Feb-22 14:31N 37°57' W 008°53'0 0.0
2015-Feb-22 13:31N 37°57' W 008°53'0 0.0
2015-Feb-22 12:31N 37°57' W 008°53'0 0.0
2015-Feb-22 11:31N 37°57' W 008°53'0 0.0
2015-Feb-22 10:31N 37°57' W 008°53'0 0.0
2015-Feb-22 09:28N 37°57' W 008°53'0 0.0
2015-Feb-22 08:31N 37°57' W 008°53'0 0.0
2015-Feb-22 07:31N 37°57' W 008°53'0 0.0
2015-Feb-22 06:31N 37°57' W 008°53'0 0.0
2015-Feb-22 05:31N 37°57' W 008°53'0 0.0
2015-Feb-22 04:31N 37°57' W 008°53'0 0.0
2015-Feb-22 03:31N 37°57' W 008°53'0 0.0
2015-Feb-22 02:31N 37°57' W 008°53'0 0.0
2015-Feb-22 01:31N 37°57' W 008°53'0 0.0
2015-Feb-22 00:31N 37°57' W 008°53'0 0.0
2015-Feb-21 23:31N 37°57' W 008°53'0 0.1
2015-Feb-21 22:31N 37°57' W 008°53'2 2.3
2015-Feb-21 21:31N 37°55' W 008°52'0 0.0
2015-Feb-21 20:31N 37°55' W 008°52'0 0.0
2015-Feb-21 19:31N 37°55' W 008°52'0 0.0
2015-Feb-21 18:31N 37°55' W 008°52'0 0.0
2015-Feb-21 17:31N 37°55' W 008°52'0 0.0
2015-Feb-21 16:31N 37°55' W 008°52'0 0.0
2015-Feb-21 15:31N 37°55' W 008°52'0 0.0
2015-Feb-21 14:31N 37°55' W 008°52'0 0.0
2015-Feb-21 13:31N 37°55' W 008°52'0 0.0
2015-Feb-21 12:31N 37°55' W 008°52'0 0.0
2015-Feb-21 11:31N 37°55' W 008°52'0 0.0
2015-Feb-21 10:31N 37°55' W 008°52'0 0.0
2015-Feb-21 09:31N 37°55' W 008°52'0 0.0
2015-Feb-21 08:31N 37°55' W 008°52'0 0.0
2015-Feb-21 07:31N 37°55' W 008°52'0 0.0
2015-Feb-21 06:31N 37°55' W 008°52'0 0.0
2015-Feb-21 05:31N 37°55' W 008°52'0 0.0
2015-Feb-21 04:31N 37°55' W 008°52'0 0.0
2015-Feb-21 03:31N 37°55' W 008°52'0 0.0
2015-Feb-21 02:31N 37°55' W 008°52'0 0.0
2015-Feb-21 01:31N 37°55' W 008°52'0 0.0
2015-Feb-21 00:31N 37°55' W 008°52'0 0.0
2015-Feb-20 23:31N 37°55' W 008°52'0 0.0
2015-Feb-20 22:31N 37°55' W 008°52'0 0.0
2015-Feb-20 21:31N 37°55' W 008°52'0 0.0
2015-Feb-20 20:28N 37°55' W 008°52'0 0.0
2015-Feb-20 19:31N 37°55' W 008°52'0 0.0
2015-Feb-20 18:31N 37°55' W 008°52'0 0.0
2015-Feb-20 17:31N 37°55' W 008°52'0 0.0
2015-Feb-20 16:31N 37°55' W 008°52'0 0.0
2015-Feb-20 15:31N 37°55' W 008°52'0 0.0
2015-Feb-20 14:31N 37°55' W 008°52'0 0.0
2015-Feb-20 13:31N 37°55' W 008°52'0 0.0
2015-Feb-20 12:31N 37°55' W 008°52'0 0.0
2015-Feb-20 11:31N 37°55' W 008°52'0 0.0
2015-Feb-20 10:31N 37°55' W 008°52'0 0.0
2015-Feb-20 09:28N 37°55' W 008°52'0 0.0
2015-Feb-20 08:31N 37°55' W 008°52'0 0.0
2015-Feb-20 07:31N 37°55' W 008°52'0 0.0
2015-Feb-20 06:31N 37°55' W 008°52'0 0.0
2015-Feb-20 05:31N 37°55' W 008°52'0 0.0
2015-Feb-20 04:31N 37°55' W 008°52'0 0.0
2015-Feb-20 03:31N 37°55' W 008°52'0 0.0
2015-Feb-20 02:28N 37°55' W 008°52'0 0.0
2015-Feb-20 01:31N 37°55' W 008°52'0 0.0
2015-Feb-20 00:31N 37°55' W 008°52'0 0.0
2015-Feb-19 23:31N 37°55' W 008°52'0 0.0
2015-Feb-19 22:31N 37°55' W 008°52'0 0.0
2015-Feb-19 21:31N 37°55' W 008°52'0 0.0
2015-Feb-19 20:31N 37°55' W 008°52'0 0.0
2015-Feb-19 19:31N 37°55' W 008°52'0 0.0
2015-Feb-19 18:31N 37°55' W 008°52'0 0.0
2015-Feb-19 17:31N 37°55' W 008°52'0 0.0
2015-Feb-19 16:31N 37°55' W 008°52'0 0.0
2015-Feb-19 15:31N 37°55' W 008°52'0 0.0
2015-Feb-19 14:31N 37°55' W 008°52'0 0.0
2015-Feb-19 13:31N 37°55' W 008°52'0 0.1
2015-Feb-19 12:31N 37°55' W 008°52'0 0.1
2015-Feb-19 11:31N 37°55' W 008°52'0 0.0
2015-Feb-19 10:31N 37°55' W 008°52'0 0.1
2015-Feb-19 09:31N 37°55' W 008°52'0 0.0
2015-Feb-19 08:31N 37°55' W 008°52'  
Track history (hours):
 
Tides and Currents Weather Stations Pressure Air Temp Water Temp Dewpoint Dewpoint Depression Visibility Wind Speed Wind Dir Waves Ship Positions

Epic Capri

Last reported at 2015-Mar-01 07:33 UTC. Time now 2015-Mar-01 08:33 UTC.
Position N 37°57' W 008°53'.

Length 99 m; draft 5 m.

Type: Tanker. MMSI: 256325000.

Date/timePositionNaut miles runAvg speedWind from/ knotsBaromVisibWave heightAir tempDewpointWater temp
2015-Mar-01 07:33N 37°57' W 008°53'0 0.0
2015-Mar-01 06:33N 37°57' W 008°53'0 0.0
2015-Mar-01 05:33N 37°57' W 008°53'0 0.0
2015-Mar-01 04:33N 37°57' W 008°53'0 0.0
2015-Mar-01 03:33N 37°57' W 008°53'0 0.0
2015-Mar-01 02:30N 37°57' W 008°53'2 2.1
2015-Mar-01 01:33N 37°55' W 008°52'0 0.3
2015-Mar-01 00:32N 37°55' W 008°52'0 0.4
2015-Feb-28 23:33N 37°55' W 008°52'8 8.4
2015-Feb-28 22:33N 37°50' W 009°01'10 9.5
2015-Feb-28 21:33N 37°44' W 009°10'9 9.3
2015-Feb-28 20:33N 37°38' W 009°19'171 8.5
2015-Feb-28 00:25N 35°49' W 012°04'  
2015-Feb-22 19:13N 37°40' W 009°16'6 9.2
2015-Feb-22 18:33N 37°44' W 009°10'9 9.2
2015-Feb-22 17:33N 37°50' W 009°01'9 8.9
2015-Feb-22 16:33N 37°56' W 008°53'1 0.9
2015-Feb-22 15:31N 37°57' W 008°53'0 0.0
2015-Feb-22 14:31N 37°57' W 008°53'0 0.0
2015-Feb-22 13:31N 37°57' W 008°53'0 0.0
2015-Feb-22 12:31N 37°57' W 008°53'0 0.0
2015-Feb-22 11:31N 37°57' W 008°53'0 0.0
2015-Feb-22 10:31N 37°57' W 008°53'0 0.0
2015-Feb-22 09:28N 37°57' W 008°53'0 0.0
2015-Feb-22 08:31N 37°57' W 008°53'0 0.0
2015-Feb-22 07:31N 37°57' W 008°53'0 0.0
2015-Feb-22 06:31N 37°57' W 008°53'0 0.0
2015-Feb-22 05:31N 37°57' W 008°53'0 0.0
2015-Feb-22 04:31N 37°57' W 008°53'0 0.0
2015-Feb-22 03:31N 37°57' W 008°53'0 0.0
2015-Feb-22 02:31N 37°57' W 008°53'0 0.0
2015-Feb-22 01:31N 37°57' W 008°53'0 0.0
2015-Feb-22 00:31N 37°57' W 008°53'0 0.0
2015-Feb-21 23:31N 37°57' W 008°53'0 0.1
2015-Feb-21 22:31N 37°57' W 008°53'2 2.3
2015-Feb-21 21:31N 37°55' W 008°52'0 0.0
2015-Feb-21 20:31N 37°55' W 008°52'0 0.0
2015-Feb-21 19:31N 37°55' W 008°52'0 0.0
2015-Feb-21 18:31N 37°55' W 008°52'0 0.0
2015-Feb-21 17:31N 37°55' W 008°52'0 0.0
2015-Feb-21 16:31N 37°55' W 008°52'0 0.0
2015-Feb-21 15:31N 37°55' W 008°52'0 0.0
2015-Feb-21 14:31N 37°55' W 008°52'0 0.0
2015-Feb-21 13:31N 37°55' W 008°52'0 0.0
2015-Feb-21 12:31N 37°55' W 008°52'0 0.0
2015-Feb-21 11:31N 37°55' W 008°52'0 0.0
2015-Feb-21 10:31N 37°55' W 008°52'0 0.0
2015-Feb-21 09:31N 37°55' W 008°52'0 0.0
2015-Feb-21 08:31N 37°55' W 008°52'0 0.0
2015-Feb-21 07:31N 37°55' W 008°52'0 0.0
2015-Feb-21 06:31N 37°55' W 008°52'0 0.0
2015-Feb-21 05:31N 37°55' W 008°52'0 0.0
2015-Feb-21 04:31N 37°55' W 008°52'0 0.0
2015-Feb-21 03:31N 37°55' W 008°52'0 0.0
2015-Feb-21 02:31N 37°55' W 008°52'0 0.0
2015-Feb-21 01:31N 37°55' W 008°52'0 0.0
2015-Feb-21 00:31N 37°55' W 008°52'0 0.0
2015-Feb-20 23:31N 37°55' W 008°52'0 0.0
2015-Feb-20 22:31N 37°55' W 008°52'0 0.0
2015-Feb-20 21:31N 37°55' W 008°52'0 0.0
2015-Feb-20 20:28N 37°55' W 008°52'0 0.0
2015-Feb-20 19:31N 37°55' W 008°52'0 0.0
2015-Feb-20 18:31N 37°55' W 008°52'0 0.0
2015-Feb-20 17:31N 37°55' W 008°52'0 0.0
2015-Feb-20 16:31N 37°55' W 008°52'0 0.0
2015-Feb-20 15:31N 37°55' W 008°52'0 0.0
2015-Feb-20 14:31N 37°55' W 008°52'0 0.0
2015-Feb-20 13:31N 37°55' W 008°52'0 0.0
2015-Feb-20 12:31N 37°55' W 008°52'0 0.0
2015-Feb-20 11:31N 37°55' W 008°52'0 0.0
2015-Feb-20 10:31N 37°55' W 008°52'0 0.0
2015-Feb-20 09:28N 37°55' W 008°52'0 0.0
2015-Feb-20 08:31N 37°55' W 008°52'0 0.0
2015-Feb-20 07:31N 37°55' W 008°52'0 0.0
2015-Feb-20 06:31N 37°55' W 008°52'0 0.0
2015-Feb-20 05:31N 37°55' W 008°52'0 0.0
2015-Feb-20 04:31N 37°55' W 008°52'0 0.0
2015-Feb-20 03:31N 37°55' W 008°52'0 0.0
2015-Feb-20 02:28N 37°55' W 008°52'0 0.0
2015-Feb-20 01:31N 37°55' W 008°52'0 0.0
2015-Feb-20 00:31N 37°55' W 008°52'0 0.0
2015-Feb-19 23:31N 37°55' W 008°52'0 0.0
2015-Feb-19 22:31N 37°55' W 008°52'0 0.0
2015-Feb-19 21:31N 37°55' W 008°52'0 0.0
2015-Feb-19 20:31N 37°55' W 008°52'0 0.0
2015-Feb-19 19:31N 37°55' W 008°52'0 0.0
2015-Feb-19 18:31N 37°55' W 008°52'0 0.0
2015-Feb-19 17:31N 37°55' W 008°52'0 0.0
2015-Feb-19 16:31N 37°55' W 008°52'0 0.0
2015-Feb-19 15:31N 37°55' W 008°52'0 0.0
2015-Feb-19 14:31N 37°55' W 008°52'0 0.0
2015-Feb-19 13:31N 37°55' W 008°52'0 0.1
2015-Feb-19 12:31N 37°55' W 008°52'0 0.1
2015-Feb-19 11:31N 37°55' W 008°52'0 0.0
2015-Feb-19 10:31N 37°55' W 008°52'0 0.1
2015-Feb-19 09:31N 37°55' W 008°52'0 0.0
2015-Feb-19 08:31N 37°55' W 008°52'  

Dump ship's entire track history